Terminal Aerodrome Forecast
Issued by NWS

Home | Current Version | Previous Version | Text Only | Print | Product List | Glossary On
Versions: 1 2 3 4 5 6 7 8 9 10 11 12 13 14 15 16 17 18 19 20 21 22 23 24 25 26 27 28 29 30 31
000
FTUS44 KHGX 171720
TAFUTS
TAF
KUTS 171720Z 1718/1818 10005KT P6SM VCSH BKN050 OVC090
     FM180400 13003KT P6SM BKN025 OVC045
     FM180900 14003KT 5SM -RA BR SCT006 OVC015=

USA.gov is the U.S. government's official web portal to all federal, state and local government web resources and services.